sensor_id;sensor_type;location;lat;lon;timestamp;pressure;altitude;pressure_sealevel;temperature;humidity
43119;BME280;28729;49.838;8.650;2023-04-28T00:00:19;99569.03;;;12.81;64.99
43119;BME280;28729;49.838;8.650;2023-04-28T00:04:21;99569.31;;;12.84;66.21
43119;BME280;28729;49.838;8.650;2023-04-28T00:08:23;99563.78;;;12.84;66.66
43119;BME280;28729;49.838;8.650;2023-04-28T00:12:27;99556.31;;;12.85;66.64
43119;BME280;28729;49.838;8.650;2023-04-28T00:16:29;99559.38;;;12.83;67.73
43119;BME280;28729;49.838;8.650;2023-04-28T00:20:31;99559.09;;;12.85;67.15
43119;BME280;28729;49.838;8.650;2023-04-28T00:24:32;99550.53;;;12.86;66.58
43119;BME280;28729;49.838;8.650;2023-04-28T00:28:36;99556.34;;;12.90;66.74
43119;BME280;28729;49.838;8.650;2023-04-28T00:32:39;99544.75;;;12.93;66.58
43119;BME280;28729;49.838;8.650;2023-04-28T00:36:41;99533.13;;;12.96;66.53
43119;BME280;28729;49.838;8.650;2023-04-28T00:40:43;99536.72;;;12.91;65.70
43119;BME280;28729;49.838;8.650;2023-04-28T00:44:44;99532.56;;;12.89;65.99
43119;BME280;28729;49.838;8.650;2023-04-28T00:48:47;99519.84;;;12.83;66.19
43119;BME280;28729;49.838;8.650;2023-04-28T00:52:49;99522.31;;;12.79;66.21
43119;BME280;28729;49.838;8.650;2023-04-28T00:56:53;99518.69;;;12.78;66.55
43119;BME280;28729;49.838;8.650;2023-04-28T01:01:02;99510.13;;;12.75;68.29
43119;BME280;28729;49.838;8.650;2023-04-28T01:05:04;99505.97;;;12.72;68.43
43119;BME280;28729;49.838;8.650;2023-04-28T01:09:07;99494.91;;;12.72;69.13
43119;BME280;28729;49.838;8.650;2023-04-28T01:13:10;99476.66;;;12.71;69.72
43119;BME280;28729;49.838;8.650;2023-04-28T01:17:12;99473.34;;;12.69;71.21
43119;BME280;28729;49.838;8.650;2023-04-28T01:21:24;99467.25;;;12.67;72.54
43119;BME280;28729;49.838;8.650;2023-04-28T01:25:26;99455.63;;;12.65;72.99
43119;BME280;28729;49.838;8.650;2023-04-28T01:29:28;99463.66;;;12.62;73.86
43119;BME280;28729;49.838;8.650;2023-04-28T01:33:30;99466.66;;;12.60;75.75
43119;BME280;28729;49.838;8.650;2023-04-28T01:37:31;99474.69;;;12.57;78.30
43119;BME280;28729;49.838;8.650;2023-04-28T01:41:34;99472.72;;;12.52;79.37
43119;BME280;28729;49.838;8.650;2023-04-28T01:45:37;99460.56;;;12.48;80.98
43119;BME280;28729;49.838;8.650;2023-04-28T01:49:39;99461.09;;;12.45;83.15
43119;BME280;28729;49.838;8.650;2023-04-28T01:53:41;99450.03;;;12.40;85.60
43119;BME280;28729;49.838;8.650;2023-04-28T01:57:43;99446.94;;;12.31;87.45
43119;BME280;28729;49.838;8.650;2023-04-28T02:01:45;99444.72;;;12.23;87.54
43119;BME280;28729;49.838;8.650;2023-04-28T02:05:47;99437.78;;;12.15;89.95
43119;BME280;28729;49.838;8.650;2023-04-28T02:09:49;99440.50;;;12.10;92.55
43119;BME280;28729;49.838;8.650;2023-04-28T02:13:51;99449.03;;;12.03;94.84
43119;BME280;28729;49.838;8.650;2023-04-28T02:17:53;99454.50;;;11.93;97.36
43119;BME280;28729;49.838;8.650;2023-04-28T02:21:54;99458.34;;;11.87;98.83
43119;BME280;28729;49.838;8.650;2023-04-28T02:26:00;99458.59;;;11.85;99.96
43119;BME280;28729;49.838;8.650;2023-04-28T02:30:03;99459.09;;;11.82;100.00
43119;BME280;28729;49.838;8.650;2023-04-28T02:34:06;99466.81;;;11.80;100.00
43119;BME280;28729;49.838;8.650;2023-04-28T02:38:09;99461.88;;;11.82;100.00
43119;BME280;28729;49.838;8.650;2023-04-28T02:42:10;99458.28;;;11.82;100.00
43119;BME280;28729;49.838;8.650;2023-04-28T02:46:12;99451.94;;;11.81;100.00
43119;BME280;28729;49.838;8.650;2023-04-28T02:50:15;99444.72;;;11.80;100.00
43119;BME280;28729;49.838;8.650;2023-04-28T02:54:17;99433.69;;;11.80;100.00
43119;BME280;28729;49.838;8.650;2023-04-28T02:58:29;99439.78;;;11.82;100.00
43119;BME280;28729;49.838;8.650;2023-04-28T03:02:30;99430.16;;;11.85;100.00
43119;BME280;28729;49.838;8.650;2023-04-28T03:06:32;99428.81;;;11.88;100.00
43119;BME280;28729;49.838;8.650;2023-04-28T03:10:34;99434.31;;;11.88;100.00
43119;BME280;28729;49.838;8.650;2023-04-28T03:14:37;99425.75;;;11.89;100.00
43119;BME280;28729;49.838;8.650;2023-04-28T03:18:38;99423.28;;;11.88;100.00
43119;BME280;28729;49.838;8.650;2023-04-28T03:22:41;99416.06;;;11.86;100.00
43119;BME280;28729;49.838;8.650;2023-04-28T03:26:43;99425.47;;;11.85;100.00
43119;BME280;28729;49.838;8.650;2023-04-28T03:30:45;99411.41;;;11.87;100.00
43119;BME280;28729;49.838;8.650;2023-04-28T03:34:47;99416.38;;;11.85;100.00
43119;BME280;28729;49.838;8.650;2023-04-28T03:38:49;99410.56;;;11.86;100.00
43119;BME280;28729;49.838;8.650;2023-04-28T03:42:51;99403.97;;;11.88;100.00
43119;BME280;28729;49.838;8.650;2023-04-28T03:46:59;99399.50;;;11.86;100.00
43119;BME280;28729;49.838;8.650;2023-04-28T03:51:02;99405.03;;;11.86;99.01
43119;BME280;28729;49.838;8.650;2023-04-28T03:55:05;99405.59;;;11.89;99.36
43119;BME280;28729;49.838;8.650;2023-04-28T03:59:07;99396.22;;;11.90;100.00
43119;BME280;28729;49.838;8.650;2023-04-28T04:03:13;99384.91;;;11.91;98.23
43119;BME280;28729;49.838;8.650;2023-04-28T04:07:17;99379.97;;;11.93;98.48
43119;BME280;28729;49.838;8.650;2023-04-28T04:11:19;99375.28;;;11.94;98.96
43119;BME280;28729;49.838;8.650;2023-04-28T04:15:21;99365.88;;;11.95;99.78
43119;BME280;28729;49.838;8.650;2023-04-28T04:19:24;99358.13;;;11.92;100.00
43119;BME280;28729;49.838;8.650;2023-04-28T04:23:28;99358.66;;;11.89;100.00
43119;BME280;28729;49.838;8.650;2023-04-28T04:27:30;99348.16;;;11.85;100.00
43119;BME280;28729;49.838;8.650;2023-04-28T04:31:32;99352.53;;;11.81;100.00
43119;BME280;28729;49.838;8.650;2023-04-28T04:35:35;99349.50;;;11.78;100.00
43119;BME280;28729;49.838;8.650;2023-04-28T04:39:38;99343.94;;;11.73;100.00
43119;BME280;28729;49.838;8.650;2023-04-28T04:43:40;99345.84;;;11.67;100.00
43119;BME280;28729;49.838;8.650;2023-04-28T04:47:42;99355.78;;;11.68;100.00
43119;BME280;28729;49.838;8.650;2023-04-28T04:51:45;99343.59;;;11.59;100.00
43119;BME280;28729;49.838;8.650;2023-04-28T04:55:47;99339.47;;;11.61;100.00
43119;BME280;28729;49.838;8.650;2023-04-28T04:59:50;99328.19;;;11.63;100.00
43119;BME280;28729;49.838;8.650;2023-04-28T05:03:54;99343.91;;;11.68;100.00
43119;BME280;28729;49.838;8.650;2023-04-28T05:07:57;99350.25;;;11.68;100.00
43119;BME280;28729;49.838;8.650;2023-04-28T05:12:00;99349.75;;;11.76;100.00
43119;BME280;28729;49.838;8.650;2023-04-28T05:16:04;99372.94;;;11.80;100.00
43119;BME280;28729;49.838;8.650;2023-04-28T05:20:32;99361.63;;;11.77;100.00
43119;BME280;28729;49.838;8.650;2023-04-28T05:24:35;99371.84;;;11.76;100.00
43119;BME280;28729;49.838;8.650;2023-04-28T05:28:39;99366.31;;;11.76;100.00
43119;BME280;28729;49.838;8.650;2023-04-28T05:32:44;99366.06;;;11.78;100.00
43119;BME280;28729;49.838;8.650;2023-04-28T05:36:48;99368.28;;;11.81;100.00
43119;BME280;28729;49.838;8.650;2023-04-28T05:40:53;99362.22;;;11.84;100.00
43119;BME280;28729;49.838;8.650;2023-04-28T05:44:55;99371.38;;;11.90;100.00
43119;BME280;28729;49.838;8.650;2023-04-28T05:48:58;99372.78;;;11.97;100.00
43119;BME280;28729;49.838;8.650;2023-04-28T05:53:05;99373.91;;;12.01;100.00
43119;BME280;28729;49.838;8.650;2023-04-28T05:57:08;99380.28;;;12.02;100.00
43119;BME280;28729;49.838;8.650;2023-04-28T06:01:12;99391.31;;;12.02;100.00
43119;BME280;28729;49.838;8.650;2023-04-28T06:05:14;99393.53;;;12.00;100.00
43119;BME280;28729;49.838;8.650;2023-04-28T06:09:17;99404.53;;;11.95;100.00
43119;BME280;28729;49.838;8.650;2023-04-28T06:13:20;99406.41;;;11.84;100.00
43119;BME280;28729;49.838;8.650;2023-04-28T06:17:22;99378.47;;;11.80;100.00
43119;BME280;28729;49.838;8.650;2023-04-28T06:21:26;99381.28;;;11.85;100.00
43119;BME280;28729;49.838;8.650;2023-04-28T06:25:30;99381.03;;;11.87;100.00
43119;BME280;28729;49.838;8.650;2023-04-28T06:29:33;99384.56;;;11.82;100.00
43119;BME280;28729;49.838;8.650;2023-04-28T06:33:35;99395.09;;;11.85;100.00
43119;BME280;28729;49.838;8.650;2023-04-28T06:37:37;99389.03;;;11.89;100.00
43119;BME280;28729;49.838;8.650;2023-04-28T06:41:41;99392.91;;;11.93;100.00
43119;BME280;28729;49.838;8.650;2023-04-28T06:45:48;99394.63;;;11.99;100.00
43119;BME280;28729;49.838;8.650;2023-04-28T06:49:52;99408.94;;;11.91;100.00
43119;BME280;28729;49.838;8.650;2023-04-28T06:53:55;99405.03;;;11.86;100.00
43119;BME280;28729;49.838;8.650;2023-04-28T06:57:57;99393.41;;;11.84;100.00
43119;BME280;28729;49.838;8.650;2023-04-28T07:01:59;99385.13;;;11.84;100.00
43119;BME280;28729;49.838;8.650;2023-04-28T07:06:03;99377.09;;;11.83;100.00
43119;BME280;28729;49.838;8.650;2023-04-28T07:10:05;99379.34;;;11.86;100.00
43119;BME280;28729;49.838;8.650;2023-04-28T07:14:09;99380.75;;;11.89;100.00
43119;BME280;28729;49.838;8.650;2023-04-28T07:18:12;99382.97;;;11.92;100.00
43119;BME280;28729;49.838;8.650;2023-04-28T07:22:15;99375.22;;;11.89;100.00
43119;BME280;28729;49.838;8.650;2023-04-28T07:26:18;99382.19;;;11.96;100.00
43119;BME280;28729;49.838;8.650;2023-04-28T07:30:21;99364.81;;;12.06;100.00
43119;BME280;28729;49.838;8.650;2023-04-28T07:34:30;99364.28;;;12.19;100.00
43119;BME280;28729;49.838;8.650;2023-04-28T07:38:34;99354.41;;;12.34;100.00
43119;BME280;28729;49.838;8.650;2023-04-28T07:42:37;99370.72;;;12.45;100.00
43119;BME280;28729;49.838;8.650;2023-04-28T07:46:39;99346.44;;;12.52;100.00
43119;BME280;28729;49.838;8.650;2023-04-28T07:50:44;99342.59;;;12.69;100.00
43119;BME280;28729;49.838;8.650;2023-04-28T07:54:46;99353.38;;;13.01;100.00
43119;BME280;28729;49.838;8.650;2023-04-28T07:58:48;99360.56;;;13.22;100.00
43119;BME280;28729;49.838;8.650;2023-04-28T08:02:53;99351.97;;;13.29;100.00
43119;BME280;28729;49.838;8.650;2023-04-28T08:06:55;99358.59;;;13.23;100.00
43119;BME280;28729;49.838;8.650;2023-04-28T08:10:57;99351.72;;;13.10;100.00
43119;BME280;28729;49.838;8.650;2023-04-28T08:14:59;99354.47;;;13.15;100.00
43119;BME280;28729;49.838;8.650;2023-04-28T08:19:02;99364.44;;;13.21;100.00
43119;BME280;28729;49.838;8.650;2023-04-28T08:23:03;99362.78;;;13.26;100.00
43119;BME280;28729;49.838;8.650;2023-04-28T08:27:05;99348.38;;;13.18;100.00
43119;BME280;28729;49.838;8.650;2023-04-28T08:31:08;99362.50;;;13.22;100.00
43119;BME280;28729;49.838;8.650;2023-04-28T08:35:11;99357.25;;;13.31;100.00
43119;BME280;28729;49.838;8.650;2023-04-28T08:39:13;99356.41;;;13.51;100.00
43119;BME280;28729;49.838;8.650;2023-04-28T08:43:16;99370.50;;;13.49;100.00
43119;BME280;28729;49.838;8.650;2023-04-28T08:47:20;99371.59;;;13.63;100.00
43119;BME280;28729;49.838;8.650;2023-04-28T08:51:33;99379.88;;;13.68;100.00
43119;BME280;28729;49.838;8.650;2023-04-28T08:55:43;99384.00;;;13.76;100.00
43119;BME280;28729;49.838;8.650;2023-04-28T08:59:47;99387.53;;;13.97;100.00
43119;BME280;28729;49.838;8.650;2023-04-28T09:03:53;99379.72;;;14.14;100.00
43119;BME280;28729;49.838;8.650;2023-04-28T09:07:55;99382.97;;;14.32;100.00
43119;BME280;28729;49.838;8.650;2023-04-28T09:12:01;99387.84;;;14.55;100.00
43119;BME280;28729;49.838;8.650;2023-04-28T09:16:06;99385.06;;;14.61;100.00
43119;BME280;28729;49.838;8.650;2023-04-28T09:20:25;99388.31;;;14.73;100.00
43119;BME280;28729;49.838;8.650;2023-04-28T09:24:30;99377.69;;;14.80;100.00
43119;BME280;28729;49.838;8.650;2023-04-28T09:28:34;99386.81;;;14.86;100.00
43119;BME280;28729;49.838;8.650;2023-04-28T09:32:36;99390.53;;;14.71;100.00
43119;BME280;28729;49.838;8.650;2023-04-28T09:36:41;99384.72;;;14.67;100.00
43119;BME280;28729;49.838;8.650;2023-04-28T09:40:56;99383.59;;;14.68;100.00
43119;BME280;28729;49.838;8.650;2023-04-28T09:45:13;99392.81;;;14.64;100.00
43119;BME280;28729;49.838;8.650;2023-04-28T09:49:15;99392.81;;;14.64;100.00
43119;BME280;28729;49.838;8.650;2023-04-28T09:53:17;99387.19;;;14.69;100.00
43119;BME280;28729;49.838;8.650;2023-04-28T09:57:20;99389.94;;;14.74;100.00
43119;BME280;28729;49.838;8.650;2023-04-28T10:01:24;99390.53;;;14.71;100.00
43119;BME280;28729;49.838;8.650;2023-04-28T10:05:26;99387.41;;;14.77;100.00
43119;BME280;28729;49.838;8.650;2023-04-28T10:09:31;99390.41;;;14.86;100.00
43119;BME280;28729;49.838;8.650;2023-04-28T10:13:34;99400.06;;;14.94;100.00
43119;BME280;28729;49.838;8.650;2023-04-28T10:17:37;99394.19;;;15.00;100.00
43119;BME280;28729;49.838;8.650;2023-04-28T10:22:01;99393.84;;;15.07;100.00
43119;BME280;28729;49.838;8.650;2023-04-28T10:26:10;99386.53;;;15.21;100.00
43119;BME280;28729;49.838;8.650;2023-04-28T10:30:17;99380.56;;;15.38;100.00
43119;BME280;28729;49.838;8.650;2023-04-28T10:34:29;99385.38;;;15.57;100.00
43119;BME280;28729;49.838;8.650;2023-04-28T10:38:32;99378.81;;;15.77;100.00
43119;BME280;28729;49.838;8.650;2023-04-28T10:42:53;99378.34;;;15.64;100.00
43119;BME280;28729;49.838;8.650;2023-04-28T10:47:04;99377.19;;;15.41;100.00
43119;BME280;28729;49.838;8.650;2023-04-28T10:55:25;99371.66;;;15.41;100.00
43119;BME280;28729;49.838;8.650;2023-04-28T10:59:27;99370.41;;;15.53;100.00
43119;BME280;28729;49.838;8.650;2023-04-28T11:03:48;99372.63;;;15.56;100.00
43119;BME280;28729;49.838;8.650;2023-04-28T11:12:27;99383.50;;;15.76;100.00
43119;BME280;28729;49.838;8.650;2023-04-28T11:16:30;99380.09;;;15.84;100.00
43119;BME280;28729;49.838;8.650;2023-04-28T11:20:36;99375.97;;;15.82;100.00
43119;BME280;28729;49.838;8.650;2023-04-28T11:24:39;99380.09;;;15.84;100.00
43119;BME280;28729;49.838;8.650;2023-04-28T11:28:55;99370.22;;;15.73;100.00
43119;BME280;28729;49.838;8.650;2023-04-28T11:32:57;99383.88;;;15.64;100.00
43119;BME280;28729;49.838;8.650;2023-04-28T11:37:00;99371.13;;;15.68;100.00
43119;BME280;28729;49.838;8.650;2023-04-28T11:41:02;99387.84;;;15.58;100.00
43119;BME280;28729;49.838;8.650;2023-04-28T11:45:05;99384.94;;;15.44;100.00
43119;BME280;28729;49.838;8.650;2023-04-28T11:49:10;99382.75;;;15.41;100.00
43119;BME280;28729;49.838;8.650;2023-04-28T11:53:13;99374.94;;;15.43;100.00
43119;BME280;28729;49.838;8.650;2023-04-28T11:57:19;99380.50;;;15.43;100.00
43119;BME280;28729;49.838;8.650;2023-04-28T12:01:23;99387.16;;;15.42;100.00
43119;BME280;28729;49.838;8.650;2023-04-28T12:05:25;99394.72;;;15.37;100.00
43119;BME280;28729;49.838;8.650;2023-04-28T12:09:27;99375.28;;;15.37;100.00
43119;BME280;28729;49.838;8.650;2023-04-28T12:13:30;99361.66;;;15.64;100.00
43119;BME280;28729;49.838;8.650;2023-04-28T12:21:37;99370.28;;;16.35;100.00
43119;BME280;28729;49.838;8.650;2023-04-28T12:25:44;99364.28;;;16.47;100.00
43119;BME280;28729;49.838;8.650;2023-04-28T12:29:47;99365.94;;;16.48;100.00
43119;BME280;28729;49.838;8.650;2023-04-28T12:33:49;99371.50;;;16.48;100.00
43119;BME280;28729;49.838;8.650;2023-04-28T12:37:51;99374.91;;;16.63;100.00
43119;BME280;28729;49.838;8.650;2023-04-28T12:41:54;99365.72;;;17.01;100.00
43119;BME280;28729;49.838;8.650;2023-04-28T12:45:57;99363.50;;;17.49;100.00
43119;BME280;28729;49.838;8.650;2023-04-28T12:49:59;99359.38;;;18.57;100.00
43119;BME280;28729;49.838;8.650;2023-04-28T12:54:01;99353.41;;;19.31;100.00
43119;BME280;28729;49.838;8.650;2023-04-28T12:58:03;99353.75;;;19.61;100.00
43119;BME280;28729;49.838;8.650;2023-04-28T13:02:07;99354.94;;;19.69;100.00
43119;BME280;28729;49.838;8.650;2023-04-28T13:06:10;99358.81;;;19.82;100.00
43119;BME280;28729;49.838;8.650;2023-04-28T13:10:13;99358.66;;;19.55;100.00
43119;BME280;28729;49.838;8.650;2023-04-28T13:14:16;99363.75;;;19.08;100.00
43119;BME280;28729;49.838;8.650;2023-04-28T13:18:19;99360.84;;;18.91;100.00
43119;BME280;28729;49.838;8.650;2023-04-28T13:22:22;99351.72;;;19.22;100.00
43119;BME280;28729;49.838;8.650;2023-04-28T13:26:25;99343.84;;;19.55;100.00
43119;BME280;28729;49.838;8.650;2023-04-28T13:30:27;99333.16;;;19.48;100.00
43119;BME280;28729;49.838;8.650;2023-04-28T13:34:30;99330.19;;;19.22;100.00
43119;BME280;28729;49.838;8.650;2023-04-28T13:38:34;99337.94;;;19.03;100.00
43119;BME280;28729;49.838;8.650;2023-04-28T13:42:37;99333.09;;;18.95;100.00
43119;BME280;28729;49.838;8.650;2023-04-28T13:46:41;99322.66;;;18.64;100.00
43119;BME280;28729;49.838;8.650;2023-04-28T13:50:43;99307.59;;;18.65;100.00
43119;BME280;28729;49.838;8.650;2023-04-28T13:54:44;99311.28;;;18.97;100.00
43119;BME280;28729;49.838;8.650;2023-04-28T13:58:47;99313.97;;;19.02;100.00
43119;BME280;28729;49.838;8.650;2023-04-28T14:02:49;99314.34;;;18.73;100.00
43119;BME280;28729;49.838;8.650;2023-04-28T14:06:53;99316.34;;;18.36;100.00
43119;BME280;28729;49.838;8.650;2023-04-28T14:10:57;99309.50;;;18.42;100.00
43119;BME280;28729;49.838;8.650;2023-04-28T14:14:58;99267.25;;;18.35;100.00
43119;BME280;28729;49.838;8.650;2023-04-28T14:19:00;99247.44;;;18.59;100.00
43119;BME280;28729;49.838;8.650;2023-04-28T14:23:03;99247.34;;;18.86;100.00
43119;BME280;28729;49.838;8.650;2023-04-28T14:27:05;99257.47;;;19.67;100.00
43119;BME280;28729;49.838;8.650;2023-04-28T14:31:07;99283.06;;;20.18;100.00
43119;BME280;28729;49.838;8.650;2023-04-28T14:35:11;99272.09;;;20.82;100.00
43119;BME280;28729;49.838;8.650;2023-04-28T14:39:13;99266.75;;;21.24;100.00
43119;BME280;28729;49.838;8.650;2023-04-28T14:43:16;99267.03;;;21.40;100.00
43119;BME280;28729;49.838;8.650;2023-04-28T14:47:18;99272.50;;;21.36;99.84
43119;BME280;28729;49.838;8.650;2023-04-28T14:51:19;99262.66;;;21.98;92.07
43119;BME280;28729;49.838;8.650;2023-04-28T14:55:24;99260.44;;;21.74;92.83
43119;BME280;28729;49.838;8.650;2023-04-28T14:59:27;99264.25;;;21.23;93.41
43119;BME280;28729;49.838;8.650;2023-04-28T15:03:29;99258.59;;;20.67;97.92
43119;BME280;28729;49.838;8.650;2023-04-28T15:07:31;99270.41;;;20.20;100.00
43119;BME280;28729;49.838;8.650;2023-04-28T15:11:33;99260.75;;;19.78;100.00
43119;BME280;28729;49.838;8.650;2023-04-28T15:15:35;99254.16;;;19.65;100.00
43119;BME280;28729;49.838;8.650;2023-04-28T15:19:38;99244.16;;;19.42;100.00
43119;BME280;28729;49.838;8.650;2023-04-28T15:23:40;99254.38;;;19.86;100.00
43119;BME280;28729;49.838;8.650;2023-04-28T15:27:41;99250.16;;;20.06;100.00
43119;BME280;28729;49.838;8.650;2023-04-28T15:31:44;99247.81;;;19.82;100.00
43119;BME280;28729;49.838;8.650;2023-04-28T15:35:46;99246.16;;;19.81;100.00
43119;BME280;28729;49.838;8.650;2023-04-28T15:39:48;99253.75;;;20.07;100.00
43119;BME280;28729;49.838;8.650;2023-04-28T15:43:50;99255.09;;;20.09;100.00
43119;BME280;28729;49.838;8.650;2023-04-28T15:47:53;99236.31;;;20.01;100.00
43119;BME280;28729;49.838;8.650;2023-04-28T15:51:55;99224.13;;;19.88;100.00
43119;BME280;28729;49.838;8.650;2023-04-28T15:55:58;99226.94;;;19.97;100.00
43119;BME280;28729;49.838;8.650;2023-04-28T16:00:00;99224.16;;;19.97;100.00
43119;BME280;28729;49.838;8.650;2023-04-28T16:04:08;99225.75;;;19.89;100.00
43119;BME280;28729;49.838;8.650;2023-04-28T16:08:10;99221.47;;;19.74;100.00
43119;BME280;28729;49.838;8.650;2023-04-28T16:12:12;99215.88;;;19.74;100.00
43119;BME280;28729;49.838;8.650;2023-04-28T16:16:14;99221.50;;;20.00;100.00
43119;BME280;28729;49.838;8.650;2023-04-28T16:20:16;99224.47;;;19.95;100.00
43119;BME280;28729;49.838;8.650;2023-04-28T16:24:22;99221.47;;;19.83;100.00
43119;BME280;28729;49.838;8.650;2023-04-28T16:28:24;99204.66;;;19.66;100.00
43119;BME280;28729;49.838;8.650;2023-04-28T16:32:27;99203.25;;;19.37;100.00
43119;BME280;28729;49.838;8.650;2023-04-28T16:36:30;99218.56;;;19.08;100.00
43119;BME280;28729;49.838;8.650;2023-04-28T16:40:35;99218.16;;;18.93;100.00
43119;BME280;28729;49.838;8.650;2023-04-28T16:44:37;99242.34;;;18.75;100.00
43119;BME280;28729;49.838;8.650;2023-04-28T16:48:39;99257.91;;;18.53;100.00
43119;BME280;28729;49.838;8.650;2023-04-28T16:52:57;99226.91;;;18.32;100.00
43119;BME280;28729;49.838;8.650;2023-04-28T16:57:01;99216.41;;;18.15;100.00
43119;BME280;28729;49.838;8.650;2023-04-28T17:01:06;99267.06;;;17.95;100.00
43119;BME280;28729;49.838;8.650;2023-04-28T17:05:09;99247.34;;;17.77;100.00
43119;BME280;28729;49.838;8.650;2023-04-28T17:09:12;99261.78;;;17.66;100.00
43119;BME280;28729;49.838;8.650;2023-04-28T17:13:15;99266.22;;;17.39;100.00
43119;BME280;28729;49.838;8.650;2023-04-28T17:17:17;99258.03;;;17.15;100.00
43119;BME280;28729;49.838;8.650;2023-04-28T17:21:19;99245.00;;;16.97;100.00
43119;BME280;28729;49.838;8.650;2023-04-28T17:25:25;99232.63;;;16.89;100.00
43119;BME280;28729;49.838;8.650;2023-04-28T17:29:27;99210.69;;;16.88;100.00
43119;BME280;28729;49.838;8.650;2023-04-28T17:33:32;99211.69;;;16.92;100.00
43119;BME280;28729;49.838;8.650;2023-04-28T17:37:34;99206.06;;;16.97;100.00
43119;BME280;28729;49.838;8.650;2023-04-28T17:41:38;99199.22;;;16.89;100.00
43119;BME280;28729;49.838;8.650;2023-04-28T17:45:40;99198.38;;;16.75;100.00
43119;BME280;28729;49.838;8.650;2023-04-28T17:49:44;99207.41;;;16.99;100.00
43119;BME280;28729;49.838;8.650;2023-04-28T17:53:47;99220.84;;;16.78;100.00
43119;BME280;28729;49.838;8.650;2023-04-28T17:57:49;99210.19;;;16.34;100.00
43119;BME280;28729;49.838;8.650;2023-04-28T18:01:53;99225.44;;;15.99;100.00
43119;BME280;28729;49.838;8.650;2023-04-28T18:05:58;99217.97;;;15.75;100.00
43119;BME280;28729;49.838;8.650;2023-04-28T18:10:02;99226.09;;;15.47;100.00
43119;BME280;28729;49.838;8.650;2023-04-28T18:14:04;99226.16;;;15.18;100.00
43119;BME280;28729;49.838;8.650;2023-04-28T18:18:12;99234.41;;;14.99;100.00
43119;BME280;28729;49.838;8.650;2023-04-28T18:22:17;99233.19;;;14.81;100.00
43119;BME280;28729;49.838;8.650;2023-04-28T18:26:20;99230.53;;;14.66;100.00
43119;BME280;28729;49.838;8.650;2023-04-28T18:30:23;99254.19;;;14.58;100.00
43119;BME280;28729;49.838;8.650;2023-04-28T18:34:27;99248.69;;;14.48;100.00
43119;BME280;28729;49.838;8.650;2023-04-28T18:38:30;99251.53;;;14.38;100.00
43119;BME280;28729;49.838;8.650;2023-04-28T18:42:35;99262.13;;;14.31;100.00
43119;BME280;28729;49.838;8.650;2023-04-28T18:46:37;99279.91;;;14.25;100.00
43119;BME280;28729;49.838;8.650;2023-04-28T18:50:40;99287.69;;;14.18;100.00
43119;BME280;28729;49.838;8.650;2023-04-28T18:54:43;99268.03;;;14.19;100.00
43119;BME280;28729;49.838;8.650;2023-04-28T18:58:45;99279.13;;;14.19;100.00
43119;BME280;28729;49.838;8.650;2023-04-28T19:02:48;99289.34;;;14.19;100.00
43119;BME280;28729;49.838;8.650;2023-04-28T19:06:50;99288.81;;;14.17;100.00
43119;BME280;28729;49.838;8.650;2023-04-28T19:10:52;99297.16;;;14.11;100.00
43119;BME280;28729;49.838;8.650;2023-04-28T19:14:54;99335.44;;;14.04;100.00
43119;BME280;28729;49.838;8.650;2023-04-28T19:18:57;99307.44;;;14.06;100.00
43119;BME280;28729;49.838;8.650;2023-04-28T19:22:59;99310.19;;;14.11;100.00
43119;BME280;28729;49.838;8.650;2023-04-28T19:27:04;99332.34;;;14.11;100.00
43119;BME280;28729;49.838;8.650;2023-04-28T19:31:07;99323.75;;;14.12;100.00
43119;BME280;28729;49.838;8.650;2023-04-28T19:35:11;99337.91;;;14.11;100.00
43119;BME280;28729;49.838;8.650;2023-04-28T19:39:14;99328.53;;;14.02;100.00
43119;BME280;28729;49.838;8.650;2023-04-28T19:43:17;99335.47;;;13.89;100.00
43119;BME280;28729;49.838;8.650;2023-04-28T19:47:22;99336.63;;;13.83;100.00
43119;BME280;28729;49.838;8.650;2023-04-28T19:51:26;99333.31;;;13.81;100.00
43119;BME280;28729;49.838;8.650;2023-04-28T19:55:29;99344.66;;;13.84;100.00
43119;BME280;28729;49.838;8.650;2023-04-28T19:59:32;99348.25;;;13.85;100.00
43119;BME280;28729;49.838;8.650;2023-04-28T20:03:34;99347.97;;;13.86;100.00
43119;BME280;28729;49.838;8.650;2023-04-28T20:07:38;99352.97;;;13.79;100.00
43119;BME280;28729;49.838;8.650;2023-04-28T20:11:40;99358.00;;;13.72;100.00
43119;BME280;28729;49.838;8.650;2023-04-28T20:15:42;99362.16;;;13.70;100.00
43119;BME280;28729;49.838;8.650;2023-04-28T20:20:43;99365.47;;;13.66;100.00
43119;BME280;28729;49.838;8.650;2023-04-28T20:24:53;99363.28;;;13.68;100.00
43119;BME280;28729;49.838;8.650;2023-04-28T20:28:54;99361.88;;;13.66;100.00
43119;BME280;28729;49.838;8.650;2023-04-28T20:33:00;99357.19;;;13.61;100.00
43119;BME280;28729;49.838;8.650;2023-04-28T20:37:02;99364.13;;;13.54;100.00
43119;BME280;28729;49.838;8.650;2023-04-28T20:41:05;99375.47;;;13.52;100.00
43119;BME280;28729;49.838;8.650;2023-04-28T20:45:08;99377.13;;;13.53;100.00
43119;BME280;28729;49.838;8.650;2023-04-28T20:49:14;99372.16;;;13.55;100.00
43119;BME280;28729;49.838;8.650;2023-04-28T20:53:16;99378.78;;;13.64;100.00
43119;BME280;28729;49.838;8.650;2023-04-28T20:57:18;99394.25;;;13.71;100.00
43119;BME280;28729;49.838;8.650;2023-04-28T21:01:20;99396.75;;;13.77;100.00
43119;BME280;28729;49.838;8.650;2023-04-28T21:05:22;99405.88;;;13.78;100.00
43119;BME280;28729;49.838;8.650;2023-04-28T21:09:25;99398.97;;;13.80;100.00
43119;BME280;28729;49.838;8.650;2023-04-28T21:13:28;99400.88;;;13.85;100.00
43119;BME280;28729;49.838;8.650;2023-04-28T21:17:29;99399.19;;;13.89;100.00
43119;BME280;28729;49.838;8.650;2023-04-28T21:21:31;99411.66;;;13.91;100.00
43119;BME280;28729;49.838;8.650;2023-04-28T21:25:35;99401.94;;;13.89;100.00
43119;BME280;28729;49.838;8.650;2023-04-28T21:29:40;99410.88;;;13.81;100.00